Time;durP1;ratioP1;P1;durP2;ratioP2;P2;SDS_P1;SDS_P2;PMS_P1;PMS_P2;Temp;Humidity;BMP_temperature;BMP_pressure;BME280_temperature;BME280_humidity;BME280_pressure;Samples;Min_cycle;Max_cycle;Signal;HPM_P1;HPM_P2
2022/10/02 00:01:40;;;;;;;10.63;3.80;;;;;;;;;;4972256;28;20089;-68
2022/10/02 00:04:11;;;;;;;;;;;;;;;;;;4973012;28;20035;-69
2022/10/02 00:06:48;;;;;;;8.05;3.40;;;;;;;;;;4972788;28;20608;-69
2022/10/02 00:09:27;;;;;;;8.85;3.50;;;;;;;;;;4973157;28;20059;-73
2022/10/02 00:11:57;;;;;;;9.55;3.72;;;;;;;;;;4973156;28;20066;-69
2022/10/02 00:14:28;;;;;;;12.40;3.50;;;;;;;;;;4976520;28;20031;-72
2022/10/02 00:16:56;;;;;;;10.63;3.85;;;;;;;;;;4975999;28;20038;-73
2022/10/02 00:19:22;;;;;;;7.65;3.30;;;;;;;;;;4976137;28;20029;-73
2022/10/02 00:22:14;;;;;;;10.68;3.92;;;;;;;;;;4975568;28;20034;-70
2022/10/02 00:25:01;;;;;;;8.45;3.35;;;;;;;;;;4975815;28;20106;-69
2022/10/02 00:27:52;;;;;;;6.57;3.25;;;;;;;;;;4976480;28;20038;-68
2022/10/02 00:30:18;;;;;;;12.18;3.50;;;;;;;;;;4976241;28;20085;-69
2022/10/02 00:32:49;;;;;;;8.93;2.97;;;;;;;;;;4976385;28;20462;-68
2022/10/02 00:35:38;;;;;;;8.27;3.05;;;;;;;;;;4976284;28;20043;-68
2022/10/02 00:38:07;;;;;;;12.45;3.33;;;;;;;;;;4976247;28;20058;-69
2022/10/02 00:41:01;;;;;;;10.25;2.97;;;;;;;;;;4975304;28;20027;-69
2022/10/02 00:43:26;;;;;;;;;;;;;;;;;;4976437;28;20512;-68
2022/10/02 00:46:09;;;;;;;11.82;3.03;;;;;;;;;;4976332;28;19968;-68
2022/10/02 00:49:09;;;;;;;8.50;3.17;;;;;;;;;;4976190;28;20046;-68
2022/10/02 00:51:51;;;;;;;11.02;2.70;;;;;;;;;;4976159;28;20106;-68
2022/10/02 00:54:26;;;;;;;13.65;3.30;;;;;;;;;;4976250;28;20034;-68
2022/10/02 00:57:01;;;;;;;11.10;3.10;;;;;;;;;;4974773;28;20045;-68
2022/10/02 00:59:50;;;;;;;12.18;2.75;;;;;;;;;;4976018;28;20039;-68
2022/10/02 01:02:25;;;;;;;10.02;2.50;;;;;;;;;;4975615;28;20030;-68
2022/10/02 01:04:53;;;;;;;11.95;2.60;;;;;;;;;;4975798;28;20514;-67
2022/10/02 01:07:20;;;;;;;12.48;3.17;;;;;;;;;;4975796;28;20083;-67
2022/10/02 01:09:46;;;;;;;10.07;2.80;;;;;;;;;;4974690;28;20039;-68
2022/10/02 01:12:13;;;;;;;7.30;2.35;;;;;;;;;;4975691;28;20023;-69
2022/10/02 01:14:40;;;;;;;9.52;2.85;;;;;;;;;;4975896;28;20027;-68
2022/10/02 01:17:38;;;;;;;9.80;2.33;;;;;;;;;;4975700;28;20490;-68
2022/10/02 01:20:06;;;;;;;7.45;2.10;;;;;;;;;;4932628;28;20054;-68
2022/10/02 01:23:04;;;;;;;8.52;1.92;;;;;;;;;;4975380;28;20022;-68
2022/10/02 01:25:31;;;;;;;8.98;2.20;;;;;;;;;;4975652;28;20030;-68
2022/10/02 01:27:56;;;;;;;6.38;1.50;;;;;;;;;;4975402;28;20388;-68
2022/10/02 01:30:23;;;;;;;11.70;2.20;;;;;;;;;;4973620;28;20035;-68
2022/10/02 01:32:53;;;;;;;11.30;2.00;;;;;;;;;;4973393;28;20157;-69
2022/10/02 01:35:21;;;;;;;15.77;2.80;;;;;;;;;;4973724;28;20047;-68
2022/10/02 01:37:49;;;;;;;10.02;1.83;;;;;;;;;;4973343;28;20378;-67
2022/10/02 01:40:30;;;;;;;12.98;2.10;;;;;;;;;;4973411;28;20042;-68
2022/10/02 01:43:09;;;;;;;9.70;1.98;;;;;;;;;;4973551;28;20077;-67
2022/10/02 01:46:11;;;;;;;7.80;1.60;;;;;;;;;;4973529;28;20043;-68
2022/10/02 01:48:44;;;;;;;7.70;1.92;;;;;;;;;;4972213;28;20043;-69
2022/10/02 01:51:34;;;;;;;11.80;2.33;;;;;;;;;;4973726;28;20038;-68
2022/10/02 01:54:38;;;;;;;5.72;1.83;;;;;;;;;;4973408;28;20146;-68
2022/10/02 01:57:39;;;;;;;7.07;1.90;;;;;;;;;;4973138;28;20039;-68
2022/10/02 02:00:14;;;;;;;4.13;1.40;;;;;;;;;;4962050;28;20130;-68
2022/10/02 02:03:13;;;;;;;7.93;1.45;;;;;;;;;;4973152;28;20042;-68
2022/10/02 02:05:57;;;;;;;4.03;1.55;;;;;;;;;;4973002;28;20038;-68
2022/10/02 02:08:34;;;;;;;9.30;2.00;;;;;;;;;;4972915;28;20034;-69
2022/10/02 02:11:09;;;;;;;7.82;1.33;;;;;;;;;;4972861;28;20082;-68
2022/10/02 02:14:00;;;;;;;4.65;1.60;;;;;;;;;;4972507;28;20049;-68
2022/10/02 02:16:49;;;;;;;9.88;1.40;;;;;;;;;;4972579;28;20043;-68
2022/10/02 02:19:19;;;;;;;3.42;1.10;;;;;;;;;;4972826;28;20082;-66
2022/10/02 02:22:10;;;;;;;4.28;1.25;;;;;;;;;;4972803;28;20023;-67
2022/10/02 02:24:43;;;;;;;5.47;1.08;;;;;;;;;;4972715;28;20037;-68
2022/10/02 02:27:14;;;;;;;3.60;1.38;;;;;;;;;;4972439;28;20035;-68
2022/10/02 02:29:44;;;;;;;4.15;1.20;;;;;;;;;;4968920;28;20098;-68
2022/10/02 02:32:13;;;;;;;5.20;0.90;;;;;;;;;;4971936;28;20026;-68
2022/10/02 02:34:51;;;;;;;3.72;1.05;;;;;;;;;;4972460;28;20042;-69
2022/10/02 02:37:20;;;;;;;4.40;0.98;;;;;;;;;;4972194;28;20054;-68
2022/10/02 02:39:57;;;;;;;5.88;1.35;;;;;;;;;;4972671;28;20027;-68
2022/10/02 02:42:28;;;;;;;4.22;1.00;;;;;;;;;;4972426;28;20035;-69
2022/10/02 02:44:59;;;;;;;3.42;1.00;;;;;;;;;;4972097;28;20035;-68
2022/10/02 02:47:32;;;;;;;4.15;0.75;;;;;;;;;;4972271;28;20501;-67
2022/10/02 02:50:14;;;;;;;2.40;0.70;;;;;;;;;;4971889;28;20441;-68
2022/10/02 02:52:50;;;;;;;3.83;0.82;;;;;;;;;;4972242;28;20406;-67
2022/10/02 02:55:23;;;;;;;7.18;1.20;;;;;;;;;;4972222;28;20070;-67
2022/10/02 02:57:55;;;;;;;;;;;;;;;;;;4973234;28;20039;-67
2022/10/02 03:00:23;;;;;;;2.90;0.73;;;;;;;;;;4971662;28;19918;-66
2022/10/02 03:02:53;;;;;;;8.82;0.90;;;;;;;;;;4972017;28;20093;-67
2022/10/02 03:05:20;;;;;;;4.85;0.70;;;;;;;;;;4971783;28;20110;-67
2022/10/02 03:07:53;;;;;;;2.92;0.73;;;;;;;;;;4972385;28;20030;-68
2022/10/02 03:10:33;;;;;;;2.72;0.80;;;;;;;;;;4974375;28;20113;-68
2022/10/02 03:13:16;;;;;;;3.00;0.90;;;;;;;;;;4974443;28;20039;-67
2022/10/02 03:16:19;;;;;;;2.78;0.85;;;;;;;;;;4974378;28;20445;-67
2022/10/02 03:19:14;;;;;;;1.37;0.80;;;;;;;;;;4974256;28;20062;-67
2022/10/02 03:21:45;;;;;;;2.65;0.85;;;;;;;;;;4974004;28;20041;-68
2022/10/02 03:24:26;;;;;;;5.97;0.80;;;;;;;;;;4972835;28;20030;-68
2022/10/02 03:27:30;;;;;;;1.45;0.70;;;;;;;;;;4974261;28;20038;-67
2022/10/02 03:29:58;;;;;;;3.67;0.90;;;;;;;;;;4952931;28;20449;-68
2022/10/02 03:32:26;;;;;;;4.05;0.82;;;;;;;;;;4974015;28;20030;-67
2022/10/02 03:34:53;;;;;;;4.28;1.17;;;;;;;;;;4970336;28;20080;-68
2022/10/02 03:37:20;;;;;;;4.00;1.10;;;;;;;;;;4965798;28;20042;-68
2022/10/02 03:39:48;;;;;;;2.80;0.90;;;;;;;;;;4954680;29;20035;-68
2022/10/02 03:42:23;;;;;;;3.22;0.70;;;;;;;;;;4955058;28;20038;-68
2022/10/02 03:44:49;;;;;;;5.82;0.80;;;;;;;;;;4958971;28;20058;-70
2022/10/02 03:47:15;;;;;;;6.30;0.77;;;;;;;;;;4962585;28;20030;-68
2022/10/02 03:49:41;;;;;;;4.35;0.80;;;;;;;;;;4975110;28;20054;-69
2022/10/02 03:52:15;;;;;;;4.68;0.80;;;;;;;;;;4974777;28;20026;-68
2022/10/02 03:54:41;;;;;;;7.95;1.33;;;;;;;;;;4973953;28;20071;-68
2022/10/02 03:57:14;;;;;;;2.05;0.80;;;;;;;;;;4976229;28;20027;-67
2022/10/02 04:00:06;;;;;;;1.42;0.55;;;;;;;;;;4974524;28;20031;-75
2022/10/02 04:02:44;;;;;;;2.30;0.77;;;;;;;;;;4975516;28;20493;-69
2022/10/02 04:05:21;;;;;;;3.35;0.85;;;;;;;;;;4975859;28;20038;-73
2022/10/02 04:07:53;;;;;;;2.15;0.60;;;;;;;;;;4971652;28;20126;-74
2022/10/02 04:10:31;;;;;;;2.30;0.60;;;;;;;;;;4970883;28;20038;-68
2022/10/02 04:13:08;;;;;;;10.45;0.95;;;;;;;;;;4974256;28;20027;-67
2022/10/02 04:15:48;;;;;;;1.92;0.95;;;;;;;;;;4974589;28;20030;-68
2022/10/02 04:18:23;;;;;;;3.42;0.90;;;;;;;;;;4975448;28;20034;-67
2022/10/02 04:20:55;;;;;;;2.25;0.73;;;;;;;;;;4976758;28;20038;-67
2022/10/02 04:23:36;;;;;;;2.55;0.70;;;;;;;;;;4977572;28;20085;-67
2022/10/02 04:26:11;;;;;;;4.22;0.80;;;;;;;;;;4977104;28;20035;-67
2022/10/02 04:28:42;;;;;;;2.10;0.70;;;;;;;;;;4977223;28;20394;-68
2022/10/02 04:31:11;;;;;;;2.60;0.68;;;;;;;;;;4977238;28;20039;-67
2022/10/02 04:33:37;;;;;;;3.67;0.90;;;;;;;;;;4977332;28;20050;-68
2022/10/02 04:36:18;;;;;;;2.78;0.68;;;;;;;;;;4977201;28;20035;-68
2022/10/02 04:38:56;;;;;;;5.18;0.70;;;;;;;;;;4977048;28;20042;-67
2022/10/02 04:41:37;;;;;;;6.93;1.10;;;;;;;;;;4977220;28;20502;-67
2022/10/02 04:44:29;;;;;;;6.32;1.00;;;;;;;;;;4977004;28;20489;-67
2022/10/02 04:47:20;;;;;;;5.15;0.98;;;;;;;;;;4954733;28;20046;-67
2022/10/02 04:50:03;;;;;;;5.00;0.90;;;;;;;;;;4976917;28;20563;-67
2022/10/02 04:52:42;;;;;;;2.65;0.82;;;;;;;;;;4992094;28;20114;-67
2022/10/02 04:55:30;;;;;;;5.25;0.82;;;;;;;;;;4975561;28;20022;-66
2022/10/02 04:58:13;;;;;;;2.40;0.98;;;;;;;;;;4976726;28;20031;-67
2022/10/02 05:00:47;;;;;;;3.08;0.70;;;;;;;;;;4975140;28;20406;-67
2022/10/02 05:03:42;;;;;;;2.35;0.60;;;;;;;;;;4976737;28;20041;-68
2022/10/02 05:06:08;;;;;;;3.08;0.75;;;;;;;;;;4976819;28;20035;-66
2022/10/02 05:08:53;;;;;;;5.72;1.10;;;;;;;;;;4976410;28;20381;-67
2022/10/02 05:12:01;;;;;;;5.05;1.05;;;;;;;;;;4976563;28;20073;-66
2022/10/02 05:15:13;;;;;;;2.55;0.85;;;;;;;;;;4971128;28;20109;-69
2022/10/02 05:17:56;;;;;;;2.95;0.90;;;;;;;;;;4935289;29;20167;-67
2022/10/02 05:20:41;;;;;;;5.93;0.82;;;;;;;;;;4935668;29;20036;-68
2022/10/02 05:23:13;;;;;;;3.15;0.98;;;;;;;;;;4974183;28;20054;-68
2022/10/02 05:26:05;;;;;;;2.38;0.80;;;;;;;;;;4976085;28;20038;-74
2022/10/02 05:28:46;;;;;;;1.27;0.70;;;;;;;;;;4975946;28;20424;-72
2022/10/02 05:31:27;;;;;;;5.88;1.02;;;;;;;;;;4975939;28;20035;-71
2022/10/02 05:34:11;;;;;;;5.78;0.88;;;;;;;;;;4974849;28;20035;-70
2022/10/02 05:36:49;;;;;;;3.97;1.00;;;;;;;;;;4975883;28;20059;-73
2022/10/02 05:39:24;;;;;;;6.63;1.13;;;;;;;;;;4975820;28;20070;-73
2022/10/02 05:42:22;;;;;;;3.75;1.00;;;;;;;;;;4969775;28;20026;-71
2022/10/02 05:45:00;;;;;;;5.97;1.00;;;;;;;;;;4948782;29;20066;-72
2022/10/02 05:47:35;;;;;;;6.07;1.00;;;;;;;;;;4955091;28;20039;-70
2022/10/02 05:50:16;;;;;;;6.32;1.15;;;;;;;;;;4956251;28;20036;-72
2022/10/02 05:53:05;;;;;;;10.43;1.35;;;;;;;;;;4956319;28;20039;-69
2022/10/02 05:55:39;;;;;;;3.88;1.00;;;;;;;;;;4956301;28;20035;-66
2022/10/02 05:58:13;;;;;;;8.45;1.00;;;;;;;;;;4955900;28;20039;-66
2022/10/02 06:00:58;;;;;;;4.10;1.02;;;;;;;;;;4960457;28;20051;-67
2022/10/02 06:03:42;;;;;;;7.70;1.35;;;;;;;;;;4975546;28;20031;-68
2022/10/02 06:06:14;;;;;;;8.90;1.27;;;;;;;;;;4975437;28;20114;-68
2022/10/02 06:08:57;;;;;;;5.47;1.10;;;;;;;;;;4974819;28;20035;-66
2022/10/02 06:11:29;;;;;;;2.20;0.85;;;;;;;;;;4972653;28;20033;-67
2022/10/02 06:14:26;;;;;;;4.35;0.95;;;;;;;;;;4975037;28;20031;-67
2022/10/02 06:17:02;;;;;;;4.28;0.90;;;;;;;;;;4954665;28;20035;-69
2022/10/02 06:19:37;;;;;;;4.22;0.90;;;;;;;;;;4974329;28;20058;-69
2022/10/02 06:22:07;;;;;;;3.80;1.30;;;;;;;;;;4973761;28;20026;-67
2022/10/02 06:24:44;;;;;;;1.35;0.75;;;;;;;;;;4973926;28;20497;-67
2022/10/02 06:27:16;;;;;;;5.00;1.20;;;;;;;;;;4973666;28;20074;-67
2022/10/02 06:30:03;;;;;;;5.35;0.80;;;;;;;;;;4973405;28;20401;-68
2022/10/02 06:32:41;;;;;;;4.85;0.95;;;;;;;;;;4974704;28;20114;-68
2022/10/02 06:35:13;;;;;;;9.30;1.67;;;;;;;;;;4969886;28;20035;-68
2022/10/02 06:38:19;;;;;;;5.53;1.00;;;;;;;;;;4965860;28;20032;-68
2022/10/02 06:41:18;;;;;;;3.15;0.95;;;;;;;;;;4973757;28;20031;-67
2022/10/02 06:43:53;;;;;;;3.03;1.00;;;;;;;;;;4973682;28;20058;-68
2022/10/02 06:46:42;;;;;;;2.88;1.00;;;;;;;;;;4973810;28;20034;-67
2022/10/02 06:49:21;;;;;;;4.95;1.05;;;;;;;;;;4972227;28;20121;-68
2022/10/02 06:52:12;;;;;;;3.75;0.80;;;;;;;;;;4969620;28;20077;-70
2022/10/02 06:55:03;;;;;;;2.08;0.95;;;;;;;;;;4973468;28;20027;-66
2022/10/02 06:58:11;;;;;;;2.15;0.70;;;;;;;;;;4971921;28;20042;-67
2022/10/02 07:00:47;;;;;;;5.97;1.00;;;;;;;;;;4973324;28;20050;-69
2022/10/02 07:03:21;;;;;;;3.13;1.00;;;;;;;;;;4973805;28;20035;-67
2022/10/02 07:06:06;;;;;;;3.20;0.95;;;;;;;;;;4954830;29;20493;-68
2022/10/02 07:08:53;;;;;;;3.88;0.90;;;;;;;;;;4955021;29;20467;-68
2022/10/02 07:11:31;;;;;;;2.28;1.02;;;;;;;;;;4954780;28;20039;-68
2022/10/02 07:14:09;;;;;;;2.55;0.75;;;;;;;;;;4954836;28;20055;-67
2022/10/02 07:16:49;;;;;;;4.05;0.88;;;;;;;;;;4971644;28;20035;-67
2022/10/02 07:19:18;;;;;;;3.92;1.00;;;;;;;;;;4972377;28;20113;-67
2022/10/02 07:21:55;;;;;;;4.30;0.90;;;;;;;;;;4971311;28;20023;-66
2022/10/02 07:24:39;;;;;;;3.22;0.90;;;;;;;;;;4969034;28;20481;-67
2022/10/02 07:27:19;;;;;;;3.97;0.98;;;;;;;;;;4970980;28;20477;-67
2022/10/02 07:30:00;;;;;;;3.05;0.90;;;;;;;;;;4971507;28;20031;-66
2022/10/02 07:32:46;;;;;;;2.97;0.80;;;;;;;;;;4971530;28;20031;-68
2022/10/02 07:35:31;;;;;;;2.80;0.80;;;;;;;;;;4972382;28;20027;-67
2022/10/02 07:38:18;;;;;;;3.95;1.00;;;;;;;;;;4974125;28;20045;-67
2022/10/02 07:40:58;;;;;;;4.10;0.93;;;;;;;;;;4971814;28;20038;-66
2022/10/02 07:43:36;;;;;;;3.20;0.85;;;;;;;;;;4971106;28;20113;-66
2022/10/02 07:46:16;;;;;;;5.05;0.82;;;;;;;;;;4970961;28;20062;-67
2022/10/02 07:49:20;;;;;;;3.70;0.85;;;;;;;;;;4970789;28;20394;-66
2022/10/02 07:52:20;;;;;;;4.57;0.82;;;;;;;;;;4966617;28;20150;-64
2022/10/02 07:55:07;;;;;;;7.90;0.85;;;;;;;;;;4971368;28;20037;-67
2022/10/02 07:57:41;;;;;;;4.43;0.85;;;;;;;;;;4970698;28;20033;-68
2022/10/02 08:00:15;;;;;;;2.83;0.85;;;;;;;;;;4972813;28;20482;-67
2022/10/02 08:02:41;;;;;;;2.05;0.90;;;;;;;;;;4973317;28;20035;-68
2022/10/02 08:05:37;;;;;;;5.68;0.98;;;;;;;;;;4973583;28;20039;-67
2022/10/02 08:08:17;;;;;;;4.10;0.82;;;;;;;;;;4972340;28;20073;-68
2022/10/02 08:10:50;;;;;;;2.47;0.80;;;;;;;;;;4973045;28;20109;-68
2022/10/02 08:13:30;;;;;;;3.20;0.80;;;;;;;;;;4973035;28;20118;-69
2022/10/02 08:15:56;;;;;;;3.28;0.95;;;;;;;;;;4972427;28;20030;-69
2022/10/02 08:18:24;;;;;;;4.10;0.65;;;;;;;;;;4972688;28;20031;-69
2022/10/02 08:20:51;;;;;;;3.85;0.80;;;;;;;;;;4972409;28;20030;-70
2022/10/02 08:23:19;;;;;;;4.65;0.90;;;;;;;;;;4971795;28;20139;-67
2022/10/02 08:26:04;;;;;;;2.88;0.80;;;;;;;;;;4972138;28;20035;-67
2022/10/02 08:28:36;;;;;;;4.97;1.02;;;;;;;;;;4972270;28;20039;-68
2022/10/02 08:31:09;;;;;;;5.18;0.90;;;;;;;;;;4975763;28;20037;-70
2022/10/02 08:33:37;;;;;;;2.78;0.70;;;;;;;;;;4975818;28;20121;-67
2022/10/02 08:36:36;;;;;;;2.53;0.90;;;;;;;;;;4976574;28;20027;-68
2022/10/02 08:39:29;;;;;;;4.63;0.70;;;;;;;;;;4976342;28;20039;-68
2022/10/02 08:42:21;;;;;;;4.55;0.68;;;;;;;;;;4976084;28;20035;-67
2022/10/02 08:44:57;;;;;;;4.25;0.88;;;;;;;;;;4976283;28;20042;-66
2022/10/02 08:47:52;;;;;;;6.15;0.90;;;;;;;;;;4975775;28;20122;-67
2022/10/02 08:50:50;;;;;;;2.58;0.70;;;;;;;;;;4975949;28;20370;-67
2022/10/02 08:53:34;;;;;;;8.65;1.25;;;;;;;;;;4975489;28;20033;-65
2022/10/02 08:56:25;;;;;;;1.38;0.73;;;;;;;;;;4975832;28;20049;-68
2022/10/02 08:59:05;;;;;;;2.22;0.70;;;;;;;;;;4975998;28;20420;-66
2022/10/02 09:02:00;;;;;;;5.63;0.75;;;;;;;;;;4975870;28;20485;-66
2022/10/02 09:05:02;;;;;;;2.95;0.80;;;;;;;;;;4975687;28;20035;-67
2022/10/02 09:07:53;;;;;;;3.80;0.82;;;;;;;;;;4976135;28;20038;-67
2022/10/02 09:10:25;;;;;;;1.98;0.80;;;;;;;;;;4975810;28;20117;-67
2022/10/02 09:13:29;;;;;;;3.60;0.82;;;;;;;;;;4975145;28;20046;-68
2022/10/02 09:16:16;;;;;;;3.38;0.95;;;;;;;;;;4975521;28;20077;-67
2022/10/02 09:18:55;;;;;;;1.95;0.85;;;;;;;;;;4975600;28;20089;-70
2022/10/02 09:21:54;;;;;;;2.38;0.85;;;;;;;;;;4973042;28;20105;-67
2022/10/02 09:24:47;;;;;;;6.20;1.10;;;;;;;;;;4959761;28;20441;-66
2022/10/02 09:27:32;;;;;;;6.85;2.58;;;;;;;;;;4973918;28;20130;-73
2022/10/02 09:30:10;;;;;;;2.95;0.90;;;;;;;;;;4974225;28;20043;-69
2022/10/02 09:33:14;;;;;;;8.93;0.80;;;;;;;;;;4974253;28;20035;-71
2022/10/02 09:36:00;;;;;;;1.50;0.60;;;;;;;;;;4955835;28;20046;-68
2022/10/02 09:38:50;;;;;;;3.10;0.80;;;;;;;;;;4969641;28;20049;-68
2022/10/02 09:41:50;;;;;;;1.75;0.68;;;;;;;;;;4973613;28;20026;-69
2022/10/02 09:44:37;;;;;;;2.25;0.60;;;;;;;;;;4974238;28;20039;-69
2022/10/02 09:47:41;;;;;;;3.13;0.63;;;;;;;;;;4973587;28;20050;-68
2022/10/02 09:50:39;;;;;;;1.30;0.60;;;;;;;;;;4958129;28;20125;-68
2022/10/02 09:53:26;;;;;;;1.70;0.70;;;;;;;;;;4974161;28;20030;-69
2022/10/02 09:56:33;;;;;;;1.45;0.82;;;;;;;;;;4973473;28;20035;-68
2022/10/02 09:59:36;;;;;;;5.40;2.67;;;;;;;;;;4972850;28;20070;-69
2022/10/02 10:02:14;;;;;;;4.28;0.85;;;;;;;;;;4972352;28;20027;-69
2022/10/02 10:04:45;;;;;;;3.13;0.55;;;;;;;;;;4972966;28;20070;-70
2022/10/02 10:07:29;;;;;;;3.65;0.80;;;;;;;;;;4974201;28;20564;-70
2022/10/02 10:09:59;;;;;;;2.80;0.73;;;;;;;;;;4974973;28;20096;-70
2022/10/02 10:13:08;;;;;;;5.95;2.50;;;;;;;;;;4974808;28;20102;-70
2022/10/02 10:16:13;;;;;;;2.72;0.70;;;;;;;;;;4969266;28;20046;-66
2022/10/02 10:18:48;;;;;;;2.22;0.85;;;;;;;;;;4960466;28;20043;-69
2022/10/02 10:21:37;;;;;;;2.88;0.70;;;;;;;;;;4974216;28;20050;-67
2022/10/02 10:24:33;;;;;;;1.60;0.80;;;;;;;;;;4972477;28;20038;-68
2022/10/02 10:27:29;;;;;;;1.48;0.70;;;;;;;;;;4974728;28;20086;-70
2022/10/02 10:30:22;;;;;;;2.97;1.00;;;;;;;;;;4974602;28;20090;-66
2022/10/02 10:33:23;;;;;;;3.35;1.25;;;;;;;;;;4974400;28;20113;-68
2022/10/02 10:35:55;;;;;;;2.40;0.80;;;;;;;;;;4931744;28;20042;-70
2022/10/02 10:38:50;;;;;;;2.53;1.00;;;;;;;;;;4973955;28;20043;-68
2022/10/02 10:41:20;;;;;;;1.88;0.90;;;;;;;;;;4973661;28;20449;-72
2022/10/02 10:44:13;;;;;;;3.35;1.10;;;;;;;;;;4974202;28;20470;-68
2022/10/02 10:46:53;;;;;;;;;;;;;;;;;;4973376;28;20066;-67
2022/10/02 10:49:34;;;;;;;2.22;0.75;;;;;;;;;;4974272;28;19918;-67
2022/10/02 10:52:12;;;;;;;2.30;0.82;;;;;;;;;;4973852;28;20039;-67
2022/10/02 10:54:47;;;;;;;2.65;0.98;;;;;;;;;;4973303;28;20045;-69
2022/10/02 10:57:22;;;;;;;4.22;1.00;;;;;;;;;;4973940;28;20038;-69
2022/10/02 10:59:57;;;;;;;5.18;1.05;;;;;;;;;;4973946;28;20038;-68
2022/10/02 11:02:30;;;;;;;4.55;0.90;;;;;;;;;;4973878;28;20482;-69
2022/10/02 11:05:33;;;;;;;2.95;1.08;;;;;;;;;;4974247;28;20066;-71
2022/10/02 11:08:24;;;;;;;4.00;0.93;;;;;;;;;;4975781;28;20050;-69
2022/10/02 11:11:09;;;;;;;3.67;0.80;;;;;;;;;;4970097;28;20150;-69
2022/10/02 11:14:11;;;;;;;1.70;0.75;;;;;;;;;;4948724;28;20049;-66
2022/10/02 11:16:58;;;;;;;3.55;1.13;;;;;;;;;;4940760;28;20039;-70
2022/10/02 11:19:42;;;;;;;3.35;1.25;;;;;;;;;;4973308;28;20039;-69
2022/10/02 11:22:30;;;;;;;8.57;1.25;;;;;;;;;;4965843;28;20089;-70
2022/10/02 11:25:21;;;;;;;4.05;0.77;;;;;;;;;;4954429;29;20031;-69
2022/10/02 11:28:15;;;;;;;2.83;1.15;;;;;;;;;;4953166;28;20035;-70
2022/10/02 11:30:41;;;;;;;2.95;1.40;;;;;;;;;;4963293;28;20035;-69
2022/10/02 11:33:44;;;;;;;4.75;1.05;;;;;;;;;;4973897;28;20019;-74
2022/10/02 11:36:47;;;;;;;1.00;0.60;;;;;;;;;;4973795;28;20070;-71
2022/10/02 11:39:40;;;;;;;1.50;0.63;;;;;;;;;;4966244;28;20046;-66
2022/10/02 11:42:35;;;;;;;4.70;1.13;;;;;;;;;;4973348;28;20053;-67
2022/10/02 11:45:17;;;;;;;5.00;1.38;;;;;;;;;;4973092;28;20494;-67
2022/10/02 11:48:19;;;;;;;2.95;1.17;;;;;;;;;;4971860;28;20482;-70
2022/10/02 11:51:08;;;;;;;3.72;0.80;;;;;;;;;;4973051;28;20054;-68
2022/10/02 11:54:18;;;;;;;3.45;0.88;;;;;;;;;;4968759;28;20042;-69
2022/10/02 11:57:28;;;;;;;6.53;2.10;;;;;;;;;;4968778;28;20031;-67
2022/10/02 12:00:24;;;;;;;2.05;1.02;;;;;;;;;;4962243;28;20046;-69
2022/10/02 12:03:03;;;;;;;4.68;1.60;;;;;;;;;;4970784;28;20046;-70
2022/10/02 12:05:41;;;;;;;3.65;1.23;;;;;;;;;;4976834;28;20073;-76
2022/10/02 12:08:49;;;;;;;4.88;1.05;;;;;;;;;;4975904;28;20026;-73
2022/10/02 12:11:32;;;;;;;3.78;2.33;;;;;;;;;;4947314;28;20402;-73
2022/10/02 12:14:20;;;;;;;6.85;2.33;;;;;;;;;;4958048;28;20090;-72
2022/10/02 12:17:15;;;;;;;4.05;1.27;;;;;;;;;;4975483;28;20058;-69
2022/10/02 12:26:59;;;;;;;2.88;0.65;;;;;;;;;;4975259;28;20056;-68
2022/10/02 12:29:49;;;;;;;4.63;1.02;;;;;;;;;;4973917;28;20037;-68
2022/10/02 12:32:48;;;;;;;1.98;0.88;;;;;;;;;;4976934;28;20034;-68
2022/10/02 12:35:32;;;;;;;2.25;0.90;;;;;;;;;;4974381;28;20120;-69
2022/10/02 12:38:16;;;;;;;3.38;0.80;;;;;;;;;;4976604;28;20030;-70
2022/10/02 12:41:01;;;;;;;;;;;;;;;;;;4976889;28;20035;-66
2022/10/02 12:43:49;;;;;;;1.23;0.85;;;;;;;;;;4976661;28;19918;-66
2022/10/02 12:46:38;;;;;;;1.63;0.90;;;;;;;;;;4975819;28;20031;-69
2022/10/02 12:49:26;;;;;;;2.65;0.80;;;;;;;;;;4973954;28;20030;-67
2022/10/02 12:52:29;;;;;;;3.00;1.13;;;;;;;;;;4966724;28;20130;-68
2022/10/02 12:55:37;;;;;;;3.15;1.05;;;;;;;;;;4976225;28;20393;-66
2022/10/02 12:58:17;;;;;;;4.15;0.90;;;;;;;;;;4975830;28;20069;-69
2022/10/02 13:01:09;;;;;;;5.10;0.80;;;;;;;;;;4975976;28;20047;-66
2022/10/02 13:03:54;;;;;;;4.43;0.90;;;;;;;;;;4976250;28;20047;-67
2022/10/02 13:06:36;;;;;;;2.97;0.80;;;;;;;;;;4976300;28;20077;-69
2022/10/02 13:09:26;;;;;;;2.17;0.70;;;;;;;;;;4976346;28;20030;-68
2022/10/02 13:12:00;;;;;;;2.40;0.80;;;;;;;;;;4976192;28;20038;-70
2022/10/02 13:14:44;;;;;;;3.15;0.70;;;;;;;;;;4974137;28;20129;-67
2022/10/02 13:17:45;;;;;;;1.35;0.60;;;;;;;;;;4973623;28;20031;-66
2022/10/02 13:20:37;;;;;;;4.57;0.90;;;;;;;;;;4973580;28;20023;-69
2022/10/02 13:23:23;;;;;;;2.30;0.77;;;;;;;;;;4975946;28;20039;-67
2022/10/02 13:26:20;;;;;;;1.13;0.60;;;;;;;;;;4970050;28;20123;-67
2022/10/02 13:29:01;;;;;;;2.58;0.80;;;;;;;;;;4973839;28;20051;-67
2022/10/02 13:32:03;;;;;;;0.88;0.60;;;;;;;;;;4975558;28;20030;-67
2022/10/02 13:34:39;;;;;;;1.50;0.73;;;;;;;;;;4974826;28;20437;-70
2022/10/02 13:37:14;;;;;;;2.15;0.80;;;;;;;;;;4975305;28;20034;-67
2022/10/02 13:40:17;;;;;;;2.38;0.55;;;;;;;;;;4974547;28;20031;-67
2022/10/02 13:42:42;;;;;;;3.35;1.70;;;;;;;;;;4974703;28;20478;-67
2022/10/02 13:45:33;;;;;;;3.72;1.20;;;;;;;;;;4973931;28;20045;-69
2022/10/02 13:48:11;;;;;;;2.10;0.80;;;;;;;;;;4975369;28;20089;-68
2022/10/02 13:51:04;;;;;;;1.73;0.70;;;;;;;;;;4974833;28;20035;-66
2022/10/02 13:53:44;;;;;;;2.50;0.80;;;;;;;;;;4974933;28;20093;-68
2022/10/02 13:56:52;;;;;;;2.17;0.82;;;;;;;;;;4974241;28;20401;-67
2022/10/02 13:59:29;;;;;;;4.78;0.80;;;;;;;;;;4954325;28;20556;-66
2022/10/02 14:01:55;;;;;;;4.18;1.20;;;;;;;;;;4954088;29;20102;-66
2022/10/02 14:04:50;;;;;;;2.05;0.80;;;;;;;;;;4964126;28;20568;-69
2022/10/02 14:07:47;;;;;;;2.97;0.80;;;;;;;;;;4973814;28;20031;-66
2022/10/02 14:10:37;;;;;;;3.30;0.80;;;;;;;;;;4963075;28;20082;-65
2022/10/02 14:13:47;;;;;;;2.97;0.70;;;;;;;;;;4966010;28;20035;-68
2022/10/02 14:16:41;;;;;;;2.13;0.70;;;;;;;;;;4972961;28;20034;-67
2022/10/02 14:19:26;;;;;;;1.15;0.80;;;;;;;;;;4962942;28;20405;-69
2022/10/02 14:22:14;;;;;;;2.22;0.70;;;;;;;;;;4988114;28;20100;-66
2022/10/02 14:25:03;;;;;;;3.25;0.88;;;;;;;;;;4986225;28;20497;-66
2022/10/02 14:27:53;;;;;;;3.20;0.90;;;;;;;;;;4972025;28;20031;-69
2022/10/02 14:30:29;;;;;;;2.40;0.98;;;;;;;;;;4972844;28;20039;-67
2022/10/02 14:33:48;;;;;;;1.02;0.52;;;;;;;;;;4972397;28;20439;-67
2022/10/02 14:36:32;;;;;;;2.42;0.60;;;;;;;;;;4927092;29;20433;-66
2022/10/02 14:39:20;;;;;;;3.85;0.70;;;;;;;;;;4954527;28;20122;-65
2022/10/02 14:42:07;;;;;;;3.17;0.90;;;;;;;;;;4971152;28;20032;-67
2022/10/02 14:45:11;;;;;;;1.95;0.60;;;;;;;;;;4972866;28;20038;-68
2022/10/02 14:47:56;;;;;;;;;;;;;;;;;;4964267;28;20476;-66
2022/10/02 14:50:43;;;;;;;6.47;1.20;;;;;;;;;;4967255;28;19919;-67
2022/10/02 14:53:32;;;;;;;4.80;0.80;;;;;;;;;;4967069;28;20070;-67
2022/10/02 14:56:15;;;;;;;2.33;0.70;;;;;;;;;;4967567;28;20096;-67
2022/10/02 14:59:08;;;;;;;2.17;0.80;;;;;;;;;;4965148;28;20035;-65
2022/10/02 15:01:45;;;;;;;1.70;0.88;;;;;;;;;;4964277;28;20062;-67
2022/10/02 15:04:41;;;;;;;1.55;0.70;;;;;;;;;;4955859;28;20031;-65
2022/10/02 15:07:17;;;;;;;1.48;0.80;;;;;;;;;;4962396;28;20070;-66
2022/10/02 15:10:01;;;;;;;1.63;0.65;;;;;;;;;;4956586;28;20166;-66
2022/10/02 15:12:42;;;;;;;3.25;0.90;;;;;;;;;;4968012;28;20031;-66
2022/10/02 15:15:13;;;;;;;5.00;1.10;;;;;;;;;;4961214;28;20034;-67
2022/10/02 15:17:59;;;;;;;6.55;1.00;;;;;;;;;;4966988;28;20031;-67
2022/10/02 15:20:43;;;;;;;1.92;0.80;;;;;;;;;;4962515;28;20054;-67
2022/10/02 15:23:12;;;;;;;6.68;0.90;;;;;;;;;;4967565;28;20046;-65
2022/10/02 15:25:52;;;;;;;3.60;1.33;;;;;;;;;;4972102;28;20026;-66
2022/10/02 15:28:40;;;;;;;2.97;1.00;;;;;;;;;;4972884;28;20383;-67
2022/10/02 15:31:32;;;;;;;3.00;0.90;;;;;;;;;;4973303;28;20150;-67
2022/10/02 15:34:17;;;;;;;2.88;0.90;;;;;;;;;;4958033;28;20047;-67
2022/10/02 15:37:03;;;;;;;3.33;1.20;;;;;;;;;;4988113;28;20496;-66
2022/10/02 15:39:52;;;;;;;2.28;0.82;;;;;;;;;;4967685;28;20045;-67
2022/10/02 15:42:43;;;;;;;4.63;1.25;;;;;;;;;;4973194;28;20042;-70
2022/10/02 15:45:34;;;;;;;2.65;0.85;;;;;;;;;;4973174;28;20043;-67
2022/10/02 15:48:36;;;;;;;4.28;1.20;;;;;;;;;;4970403;28;20046;-68
2022/10/02 15:51:16;;;;;;;2.78;1.10;;;;;;;;;;4972971;28;20039;-69
2022/10/02 15:53:53;;;;;;;4.70;1.38;;;;;;;;;;4973176;28;20039;-68
2022/10/02 15:56:25;;;;;;;3.50;1.13;;;;;;;;;;4973259;28;20035;-69
2022/10/02 15:59:13;;;;;;;5.32;1.40;;;;;;;;;;4972409;28;20042;-68
2022/10/02 16:02:02;;;;;;;2.35;1.20;;;;;;;;;;4971091;28;20425;-69
2022/10/02 16:04:57;;;;;;;4.05;1.13;;;;;;;;;;4972726;28;20031;-68
2022/10/02 16:07:26;;;;;;;5.72;1.60;;;;;;;;;;4971435;28;20118;-68
2022/10/02 16:10:21;;;;;;;5.30;1.52;;;;;;;;;;4973302;28;20035;-68
2022/10/02 16:13:07;;;;;;;2.20;1.25;;;;;;;;;;4972681;28;20035;-68
2022/10/02 16:15:42;;;;;;;5.50;1.38;;;;;;;;;;4973742;28;20083;-69
2022/10/02 16:18:35;;;;;;;4.50;1.50;;;;;;;;;;4972723;28;20031;-71
2022/10/02 16:21:30;;;;;;;4.13;2.00;;;;;;;;;;4972568;28;20129;-68
2022/10/02 16:24:33;;;;;;;6.82;1.60;;;;;;;;;;4972420;28;20549;-70
2022/10/02 16:27:23;;;;;;;2.77;1.10;;;;;;;;;;4973077;28;20470;-70